createdAt,value
2019-03-23T00:00:53.464Z,18.10
2019-03-23T00:01:53.457Z,16.90
2019-03-23T00:02:53.452Z,15.80
2019-03-23T00:03:53.444Z,19.20
2019-03-23T00:04:53.444Z,19.20
2019-03-23T00:05:53.436Z,17.60
2019-03-23T00:06:53.428Z,16.40
2019-03-23T00:07:53.420Z,14.50
2019-03-23T00:08:53.408Z,15.30
2019-03-23T00:09:53.431Z,14.40
2019-03-23T00:10:53.430Z,15.30
2019-03-23T00:11:53.392Z,14.80
2019-03-23T00:12:53.382Z,16.50
2019-03-23T00:13:53.374Z,16.30
2019-03-23T00:14:53.371Z,19.60
2019-03-23T00:15:53.370Z,16.80
2019-03-23T00:16:53.360Z,17.80
2019-03-23T00:17:53.354Z,20.20
2019-03-23T00:18:53.348Z,16.20
2019-03-23T00:19:53.340Z,19.50
2019-03-23T00:20:53.325Z,18.40
2019-03-23T00:21:53.319Z,16.60
2019-03-23T00:22:53.316Z,19.10
2019-03-23T00:23:53.309Z,18.50
2019-03-23T00:24:53.310Z,21.80
2019-03-23T00:25:53.299Z,18.50
2019-03-23T00:26:53.289Z,20.70
2019-03-23T00:27:53.280Z,18.70
2019-03-23T00:28:53.278Z,17.60
2019-03-23T00:29:53.269Z,21.60
2019-03-23T00:30:53.265Z,19.50
2019-03-23T00:31:53.253Z,18.10
2019-03-23T00:32:53.242Z,19.90
2019-03-23T00:33:53.236Z,22.80
2019-03-23T00:34:53.228Z,20.10
2019-03-23T00:35:53.220Z,17.50
2019-03-23T00:36:53.217Z,19.30
2019-03-23T00:37:53.212Z,21.90
2019-03-23T00:38:53.207Z,19.30
2019-03-23T00:39:53.199Z,20.20
2019-03-23T00:40:53.188Z,20.70
2019-03-23T00:41:53.189Z,22.50
2019-03-23T00:42:53.178Z,19.30
2019-03-23T00:43:53.171Z,19.60
2019-03-23T00:44:53.158Z,21.60
2019-03-23T00:45:53.153Z,22.20
2019-03-23T00:46:53.143Z,24.00
2019-03-23T00:47:53.133Z,20.00
2019-03-23T00:48:53.132Z,23.10
2019-03-23T00:49:53.123Z,19.90
2019-03-23T00:50:53.117Z,23.10
2019-03-23T00:51:53.111Z,21.00
2019-03-23T00:52:53.096Z,25.00
2019-03-23T00:53:53.092Z,24.90
2019-03-23T00:54:53.089Z,21.80
2019-03-23T00:55:53.076Z,23.50
2019-03-23T00:56:53.076Z,24.80
2019-03-23T00:57:53.068Z,22.80
2019-03-23T00:58:53.055Z,22.20
2019-03-23T00:59:53.047Z,23.00
2019-03-23T01:00:53.044Z,20.80
2019-03-23T01:01:53.040Z,20.50
2019-03-23T01:02:53.028Z,21.90
2019-03-23T01:03:53.020Z,21.60
2019-03-23T01:04:53.007Z,20.00
2019-03-23T01:05:53.001Z,24.20
2019-03-23T01:06:52.993Z,20.70
2019-03-23T01:07:52.987Z,21.30
2019-03-23T01:08:52.981Z,23.00
2019-03-23T01:09:52.973Z,23.40
2019-03-23T01:10:52.970Z,23.90
2019-03-23T01:11:52.962Z,21.50
2019-03-23T01:12:52.950Z,23.60
2019-03-23T01:13:52.943Z,25.70
2019-03-23T01:14:52.938Z,24.20
2019-03-23T01:15:52.930Z,27.50
2019-03-23T01:16:52.919Z,25.40
2019-03-23T01:17:52.911Z,25.00
2019-03-23T01:18:52.900Z,40.90
2019-03-23T01:19:52.894Z,43.30
2019-03-23T01:20:52.890Z,43.50
2019-03-23T01:21:52.882Z,42.40
2019-03-23T01:22:52.877Z,44.60
2019-03-23T01:23:52.873Z,55.30
2019-03-23T01:24:52.857Z,53.10
2019-03-23T01:25:52.850Z,54.10
2019-03-23T01:26:52.839Z,52.50
2019-03-23T01:27:52.831Z,54.20
2019-03-23T01:28:52.829Z,51.00
2019-03-23T01:29:52.820Z,60.70
2019-03-23T01:30:52.810Z,60.60
2019-03-23T01:31:52.800Z,61.00
2019-03-23T01:32:52.795Z,60.10
2019-03-23T01:33:52.792Z,64.40
2019-03-23T01:34:52.783Z,69.00
2019-03-23T01:35:52.775Z,62.80
2019-03-23T01:37:02.507Z,70.30
2019-03-23T01:37:52.756Z,70.00
2019-03-23T01:38:52.749Z,67.40
2019-03-23T01:39:52.738Z,69.30
2019-03-23T01:40:52.736Z,72.60
2019-03-23T01:41:52.729Z,76.30
2019-03-23T01:42:52.717Z,78.90
2019-03-23T01:43:52.711Z,82.00
2019-03-23T01:44:52.698Z,80.70
2019-03-23T01:45:52.690Z,75.90
2019-03-23T01:46:52.688Z,78.10
2019-03-23T01:47:52.677Z,86.20
2019-03-23T01:48:52.671Z,76.10
2019-03-23T01:49:52.658Z,73.10
2019-03-23T01:50:52.659Z,88.00
2019-03-23T01:51:52.645Z,84.60
2019-03-23T01:52:52.640Z,84.80
2019-03-23T01:53:52.641Z,93.60
2019-03-23T01:54:52.626Z,97.70
2019-03-23T01:55:52.615Z,100.10
2019-03-23T01:56:52.604Z,102.80
2019-03-23T01:57:52.600Z,106.50
2019-03-23T01:58:52.620Z,102.00
2019-03-23T01:59:52.577Z,108.00
2019-03-23T02:00:52.575Z,115.90
2019-03-23T02:01:52.566Z,111.80
2019-03-23T02:06:52.527Z,121.10
2019-03-23T02:07:52.519Z,117.40
2019-03-23T02:08:52.506Z,131.20
2019-03-23T02:09:52.499Z,122.20
2019-03-23T02:10:52.491Z,131.80
2019-03-23T02:11:52.480Z,123.10
2019-03-23T02:12:52.476Z,124.10
2019-03-23T02:13:52.470Z,118.80
2019-03-23T02:14:52.460Z,121.30
2019-03-23T02:15:52.449Z,129.70
2019-03-23T02:16:52.437Z,121.70
2019-03-23T02:17:52.429Z,122.60
2019-03-23T02:18:52.426Z,128.20
2019-03-23T02:19:52.416Z,124.60
2019-03-23T02:20:52.404Z,118.80
2019-03-23T02:21:52.397Z,120.00
2019-03-23T02:22:52.391Z,117.80
2019-03-23T02:23:52.382Z,117.30
2019-03-23T02:24:52.378Z,121.00
2019-03-23T02:25:52.369Z,129.20
2019-03-23T02:26:52.368Z,123.40
2019-03-23T02:27:52.353Z,135.80
2019-03-23T02:28:52.341Z,125.00
2019-03-23T02:29:52.332Z,129.70
2019-03-23T02:30:52.326Z,128.60
2019-03-23T02:31:52.317Z,131.80
2019-03-23T02:32:52.313Z,124.80
2019-03-23T02:33:52.307Z,128.90
2019-03-23T02:34:52.309Z,126.30
2019-03-23T02:35:52.287Z,123.50
2019-03-23T02:36:52.294Z,128.20
2019-03-23T02:37:52.277Z,125.10
2019-03-23T02:38:52.269Z,125.40
2019-03-23T02:39:52.349Z,128.90
2019-03-23T02:40:52.244Z,129.00
2019-03-23T02:41:52.235Z,127.20
2019-03-23T02:42:52.229Z,127.70
2019-03-23T02:43:52.219Z,121.90
2019-03-23T02:44:52.217Z,138.90
2019-03-23T02:45:52.208Z,134.90
2019-03-23T02:46:52.203Z,139.10
2019-03-23T02:47:52.199Z,131.20
2019-03-23T02:48:52.230Z,130.70
2019-03-23T02:49:52.175Z,140.50
2019-03-23T02:50:52.173Z,128.50
2019-03-23T02:51:52.175Z,122.50
2019-03-23T02:52:52.152Z,125.50
2019-03-23T02:53:52.143Z,130.20
2019-03-23T02:54:52.134Z,120.20
2019-03-23T02:55:52.123Z,128.10
2019-03-23T02:56:52.121Z,129.30
2019-03-23T02:57:52.117Z,123.80
2019-03-23T02:58:52.114Z,124.50
2019-03-23T02:59:52.103Z,134.70
2019-03-23T03:00:52.101Z,131.70
2019-03-23T03:01:52.081Z,130.30
2019-03-23T03:02:52.089Z,138.00
2019-03-23T03:03:52.077Z,135.60
2019-03-23T03:04:52.062Z,140.50
2019-03-23T03:05:52.059Z,149.10
2019-03-23T03:06:52.048Z,149.50
2019-03-23T03:07:52.034Z,138.60
2019-03-23T03:08:52.032Z,142.60
2019-03-23T03:09:52.022Z,141.70
2019-03-23T03:10:52.018Z,149.00
2019-03-23T03:11:52.014Z,144.80
2019-03-23T03:12:51.994Z,156.50
2019-03-23T03:13:51.987Z,151.10
2019-03-23T03:14:51.979Z,143.60
2019-03-23T03:15:51.970Z,155.30
2019-03-23T03:16:51.968Z,151.70
2019-03-23T03:17:51.961Z,144.50
2019-03-23T03:18:51.955Z,141.80
2019-03-23T03:19:51.947Z,138.10
2019-03-23T03:20:51.935Z,141.40
2019-03-23T03:21:51.930Z,142.70
2019-03-23T03:22:51.923Z,136.80
2019-03-23T03:23:51.915Z,140.60
2019-03-23T03:24:51.903Z,152.60
2019-03-23T03:25:51.896Z,149.80
2019-03-23T03:26:51.885Z,143.40
2019-03-23T03:27:51.875Z,157.20
2019-03-23T03:28:51.880Z,147.60
2019-03-23T03:29:51.866Z,146.80
2019-03-23T03:30:51.859Z,144.00
2019-03-23T03:31:51.852Z,151.00
2019-03-23T03:32:51.840Z,151.90
2019-03-23T03:33:51.835Z,152.80
2019-03-23T03:34:51.828Z,165.20
2019-03-23T03:35:51.817Z,153.40
2019-03-23T03:36:51.815Z,155.80
2019-03-23T03:37:56.840Z,151.90
2019-03-23T03:38:51.808Z,159.10
2019-03-23T03:39:51.787Z,158.70
2019-03-23T03:40:51.783Z,155.70
2019-03-23T03:41:51.776Z,156.30
2019-03-23T03:42:51.776Z,163.50
2019-03-23T03:43:51.765Z,159.60
2019-03-23T03:44:51.750Z,169.30
2019-03-23T03:45:51.738Z,156.10
2019-03-23T03:46:51.732Z,159.30
2019-03-23T03:47:51.723Z,164.50
2019-03-23T03:48:51.720Z,146.80
2019-03-23T03:49:51.711Z,161.90
2019-03-23T03:50:51.707Z,149.50
2019-03-23T03:51:51.699Z,162.90
2019-03-23T03:52:51.691Z,165.70
2019-03-23T03:53:51.684Z,152.90
2019-03-23T03:54:51.675Z,161.70
2019-03-23T03:55:51.665Z,156.40
2019-03-23T03:56:51.657Z,157.90
2019-03-23T03:57:51.652Z,158.20
2019-03-23T03:58:51.642Z,155.50
2019-03-23T03:59:51.630Z,147.00
2019-03-23T04:00:51.627Z,150.10
2019-03-23T04:01:51.623Z,163.10
2019-03-23T04:02:51.611Z,147.10
2019-03-23T04:03:51.612Z,155.20
2019-03-23T04:04:51.591Z,160.10
2019-03-23T04:05:51.593Z,157.30
2019-03-23T04:06:51.579Z,156.90
2019-03-23T04:07:51.577Z,163.10
2019-03-23T04:08:51.567Z,152.40
2019-03-23T04:09:51.559Z,150.60
2019-03-23T04:10:51.554Z,160.00
2019-03-23T04:11:51.540Z,165.10
2019-03-23T04:12:51.536Z,151.10
2019-03-23T04:13:51.529Z,158.20
2019-03-23T04:14:51.518Z,158.20
2019-03-23T04:15:51.512Z,153.00
2019-03-23T04:16:51.500Z,158.80
2019-03-23T04:17:51.493Z,159.00
2019-03-23T04:18:51.545Z,161.10
2019-03-23T04:19:51.484Z,154.10
2019-03-23T04:20:51.481Z,157.70
2019-03-23T04:21:51.465Z,152.40
2019-03-23T04:22:51.459Z,165.50
2019-03-23T04:23:51.459Z,156.40
2019-03-23T04:24:51.449Z,160.20
2019-03-23T04:25:51.438Z,158.90
2019-03-23T04:26:51.430Z,150.10
2019-03-23T04:27:51.422Z,152.60
2019-03-23T04:28:51.407Z,160.30
2019-03-23T04:29:51.475Z,156.20
2019-03-23T04:30:51.393Z,159.40
2019-03-23T04:31:51.383Z,152.20
2019-03-23T04:32:51.381Z,156.80
2019-03-23T04:33:51.378Z,154.70
2019-03-23T04:34:51.369Z,157.00
2019-03-23T04:35:51.361Z,158.20
2019-03-23T04:36:51.348Z,149.00
2019-03-23T04:37:51.340Z,147.90
2019-03-23T04:38:51.331Z,159.30
2019-03-23T04:39:51.322Z,148.20
2019-03-23T04:40:51.322Z,149.60
2019-03-23T04:41:51.310Z,156.10
2019-03-23T04:42:51.297Z,164.30
2019-03-23T04:43:51.290Z,159.30
2019-03-23T04:44:51.287Z,149.20
2019-03-23T04:45:51.280Z,166.10
2019-03-23T04:46:51.275Z,156.70
2019-03-23T04:47:51.267Z,164.90
2019-03-23T04:48:51.255Z,157.40
2019-03-23T04:49:51.252Z,163.20
2019-03-23T04:50:51.241Z,144.40
2019-03-23T04:51:51.232Z,158.90
2019-03-23T04:52:51.230Z,154.40
2019-03-23T04:53:51.221Z,159.10
2019-03-23T04:54:51.215Z,156.80
2019-03-23T04:55:51.204Z,148.10
2019-03-23T04:56:51.192Z,157.00
2019-03-23T04:57:51.187Z,150.80
2019-03-23T04:58:51.182Z,144.10
2019-03-23T04:59:51.173Z,154.50
2019-03-23T05:00:51.163Z,153.20
2019-03-23T05:01:51.153Z,161.00
2019-03-23T05:02:51.156Z,146.00
2019-03-23T05:03:51.141Z,158.90
2019-03-23T05:04:51.142Z,164.70
2019-03-23T05:05:51.133Z,162.30
2019-03-23T05:06:51.123Z,160.90
2019-03-23T05:07:51.115Z,151.20
2019-03-23T05:08:51.104Z,162.90
2019-03-23T05:09:51.097Z,165.70
2019-03-23T05:10:51.087Z,157.90
2019-03-23T05:11:51.080Z,154.70
2019-03-23T05:12:51.081Z,148.20
2019-03-23T05:13:51.069Z,156.00
2019-03-23T05:14:51.058Z,154.00
2019-03-23T05:15:51.051Z,148.30
2019-03-23T05:16:51.047Z,156.40
2019-03-23T05:17:51.039Z,158.40
2019-03-23T05:18:51.033Z,156.70
2019-03-23T05:19:51.026Z,150.30
2019-03-23T05:20:51.014Z,154.50
2019-03-23T05:21:51.008Z,154.60
2019-03-23T05:22:50.999Z,159.70
2019-03-23T05:23:50.991Z,152.00
2019-03-23T05:24:50.988Z,160.00
2019-03-23T05:25:50.981Z,152.50
2019-03-23T05:26:50.971Z,146.80
2019-03-23T05:27:50.963Z,149.50
2019-03-23T05:28:50.951Z,147.50
2019-03-23T05:29:50.948Z,144.70
2019-03-23T05:30:50.944Z,145.80
2019-03-23T05:31:50.934Z,158.80
2019-03-23T05:32:50.921Z,143.40
2019-03-23T05:33:50.916Z,152.70
2019-03-23T05:34:50.911Z,142.60
2019-03-23T05:35:50.902Z,146.40
2019-03-23T05:36:50.906Z,139.30
2019-03-23T05:37:50.893Z,145.00
2019-03-23T05:38:50.882Z,148.20
2019-03-23T05:39:50.873Z,150.30
2019-03-23T05:40:50.862Z,144.40
2019-03-23T05:41:50.853Z,152.70
2019-03-23T05:42:50.848Z,147.30
2019-03-23T05:43:50.842Z,149.30
2019-03-23T05:44:50.837Z,146.40
2019-03-23T05:45:50.836Z,141.80
2019-03-23T05:46:50.819Z,142.70
2019-03-23T05:47:50.811Z,145.80
2019-03-23T05:48:50.810Z,148.10
2019-03-23T05:49:50.802Z,144.30
2019-03-23T05:50:50.804Z,140.00
2019-03-23T05:51:50.784Z,135.30
2019-03-23T05:52:50.771Z,144.60
2019-03-23T05:53:50.763Z,142.50
2019-03-23T05:54:50.757Z,135.30
2019-03-23T05:55:50.750Z,135.10
2019-03-23T05:56:50.744Z,135.50
2019-03-23T05:57:50.738Z,142.80
2019-03-23T05:58:50.733Z,132.10
2019-03-23T05:59:50.723Z,134.50
2019-03-23T06:00:50.713Z,137.30
2019-03-23T06:01:50.706Z,137.30
2019-03-23T06:02:50.703Z,143.10
2019-03-23T06:03:50.695Z,133.40
2019-03-23T06:04:50.684Z,135.70
2019-03-23T06:05:50.677Z,132.90
2019-03-23T06:06:50.667Z,139.80
2019-03-23T06:07:50.657Z,137.20
2019-03-23T06:08:54.979Z,136.00
2019-03-23T06:09:50.651Z,136.60
2019-03-23T06:10:50.639Z,130.30
2019-03-23T06:11:50.631Z,137.80
2019-03-23T06:12:50.621Z,135.00
2019-03-23T06:13:50.614Z,128.60
2019-03-23T06:14:50.614Z,138.60
2019-03-23T06:15:50.604Z,132.30
2019-03-23T06:16:50.597Z,134.10
2019-03-23T06:17:50.590Z,129.30
2019-03-23T06:18:50.579Z,137.50
2019-03-23T06:19:50.571Z,149.80
2019-03-23T06:20:50.568Z,138.00
2019-03-23T06:21:50.560Z,137.40
2019-03-23T06:22:50.551Z,136.30
2019-03-23T06:23:50.543Z,136.70
2019-03-23T06:24:50.534Z,132.40
2019-03-23T06:25:50.524Z,136.50
2019-03-23T06:26:50.518Z,142.40
2019-03-23T06:27:50.508Z,147.00
2019-03-23T06:28:50.507Z,145.80
2019-03-23T06:29:50.500Z,131.90
2019-03-23T06:30:50.494Z,146.20
2019-03-23T06:31:50.488Z,141.40
2019-03-23T06:32:50.474Z,138.40
2019-03-23T06:33:50.473Z,139.00
2019-03-23T06:34:50.465Z,145.20
2019-03-23T06:35:50.456Z,139.10
2019-03-23T06:36:50.445Z,143.20
2019-03-23T06:37:50.438Z,139.50
2019-03-23T06:38:50.428Z,142.70
2019-03-23T06:39:50.421Z,122.90
2019-03-23T06:40:50.418Z,143.00
2019-03-23T06:41:50.411Z,137.60
2019-03-23T06:42:59.415Z,143.80
2019-03-23T06:43:50.406Z,143.70
2019-03-23T06:44:50.388Z,128.70
2019-03-23T06:45:50.380Z,130.70
2019-03-23T06:46:50.370Z,135.20
2019-03-23T06:47:50.362Z,129.60
2019-03-23T06:48:50.360Z,131.90
2019-03-23T06:49:50.353Z,130.20
2019-03-23T06:50:50.341Z,125.30
2019-03-23T06:51:50.333Z,128.50
2019-03-23T06:52:50.332Z,124.10
2019-03-23T06:53:50.324Z,134.50
2019-03-23T06:54:50.319Z,137.00
2019-03-23T06:55:50.311Z,119.00
2019-03-23T06:56:50.300Z,133.00
2019-03-23T06:57:50.294Z,119.60
2019-03-23T06:58:50.286Z,117.00
2019-03-23T06:59:50.279Z,133.40
2019-03-23T07:00:50.275Z,120.10
2019-03-23T07:01:50.271Z,117.20
2019-03-23T07:02:50.260Z,120.30
2019-03-23T07:03:50.251Z,122.30
2019-03-23T07:04:50.240Z,119.30
2019-03-23T07:05:50.232Z,123.90
2019-03-23T07:06:50.230Z,116.00
2019-03-23T07:07:50.224Z,119.50
2019-03-23T07:08:50.214Z,115.50
2019-03-23T07:09:50.205Z,114.90
2019-03-23T07:10:50.200Z,119.10
2019-03-23T07:11:50.192Z,115.20
2019-03-23T07:12:50.192Z,119.20
2019-03-23T07:13:50.182Z,117.70
2019-03-23T07:14:50.175Z,115.30
2019-03-23T07:15:50.176Z,114.10
2019-03-23T07:16:50.156Z,114.20
2019-03-23T07:17:50.151Z,112.70
2019-03-23T07:18:50.140Z,114.70
2019-03-23T07:19:50.132Z,117.90
2019-03-23T07:20:50.132Z,117.50
2019-03-23T07:21:50.124Z,117.30
2019-03-23T07:22:50.115Z,118.00
2019-03-23T07:23:50.107Z,114.80
2019-03-23T07:24:50.103Z,108.00
2019-03-23T07:25:50.099Z,109.30
2019-03-23T07:26:50.093Z,102.40
2019-03-23T07:27:50.085Z,111.70
2019-03-23T07:28:50.075Z,109.00
2019-03-23T07:29:50.067Z,105.20
2019-03-23T07:30:50.062Z,111.90
2019-03-23T07:31:50.054Z,110.70
2019-03-23T07:32:50.060Z,105.10
2019-03-23T07:33:50.045Z,104.50
2019-03-23T07:34:50.035Z,104.20
2019-03-23T07:35:50.029Z,103.70
2019-03-23T07:36:50.016Z,97.30
2019-03-23T07:37:50.012Z,102.70
2019-03-23T07:38:50.009Z,107.50
2019-03-23T07:39:50.001Z,100.60
2019-03-23T07:40:49.992Z,100.90
2019-03-23T07:41:49.984Z,95.90
2019-03-23T07:42:49.980Z,99.50
2019-03-23T07:43:49.974Z,95.00
2019-03-23T07:44:49.972Z,101.60
2019-03-23T07:45:49.964Z,100.40
2019-03-23T07:46:49.957Z,95.10
2019-03-23T07:47:49.954Z,97.60
2019-03-23T07:48:49.939Z,97.90
2019-03-23T07:49:49.931Z,95.50
2019-03-23T07:50:49.929Z,99.50
2019-03-23T07:51:49.922Z,93.30
2019-03-23T07:52:49.919Z,94.60
2019-03-23T07:53:49.919Z,89.00
2019-03-23T07:54:49.903Z,96.60
2019-03-23T07:55:49.896Z,89.40
2019-03-23T07:56:49.897Z,101.10
2019-03-23T07:57:49.888Z,90.10
2019-03-23T07:58:49.880Z,91.80
2019-03-23T07:59:49.875Z,93.90
2019-03-23T08:00:49.863Z,90.00
2019-03-23T08:01:49.857Z,92.90
2019-03-23T08:02:49.853Z,88.60
2019-03-23T08:03:49.845Z,92.30
2019-03-23T08:04:49.842Z,91.60
2019-03-23T08:05:49.841Z,90.90
2019-03-23T08:06:49.834Z,96.30
2019-03-23T08:07:49.826Z,90.30
2019-03-23T08:08:49.816Z,97.50
2019-03-23T08:09:49.812Z,86.80
2019-03-23T08:10:49.816Z,90.00
2019-03-23T08:11:49.810Z,91.30
2019-03-23T08:12:49.796Z,90.00
2019-03-23T08:13:49.786Z,87.60
2019-03-23T08:14:49.778Z,89.40
2019-03-23T08:15:49.770Z,89.40
2019-03-23T08:16:49.770Z,85.20
2019-03-23T08:17:49.764Z,90.50
2019-03-23T08:18:49.760Z,87.30
2019-03-23T08:19:49.752Z,91.10
2019-03-23T08:20:49.741Z,89.30
2019-03-23T08:21:49.736Z,90.70
2019-03-23T08:22:49.733Z,90.00
2019-03-23T08:23:49.726Z,89.90
2019-03-23T08:24:49.725Z,85.70
2019-03-23T08:25:49.718Z,85.50
2019-03-23T08:26:49.711Z,90.40
2019-03-23T08:27:49.704Z,88.00
2019-03-23T08:28:49.702Z,86.70
2019-03-23T08:29:49.696Z,83.40
2019-03-23T08:30:49.689Z,88.20
2019-03-23T08:31:49.681Z,86.80
2019-03-23T08:32:49.673Z,85.60
2019-03-23T08:33:51.960Z,83.90
2019-03-23T08:34:49.660Z,81.80
2019-03-23T08:35:49.653Z,83.50
2019-03-23T08:36:49.654Z,82.60
2019-03-23T08:37:49.648Z,76.50
2019-03-23T08:38:51.652Z,79.00
2019-03-23T08:39:49.638Z,78.60
2019-03-23T08:40:49.629Z,75.90
2019-03-23T08:41:49.623Z,73.20
2019-03-23T08:42:49.623Z,78.00
2019-03-23T08:43:49.615Z,78.80
2019-03-23T08:44:49.607Z,74.40
2019-03-23T08:45:49.613Z,73.80
2019-03-23T08:46:49.599Z,76.90
2019-03-23T08:47:49.587Z,72.40
2019-03-23T08:48:49.586Z,77.80
2019-03-23T08:49:49.580Z,78.70
2019-03-23T08:50:49.578Z,72.00
2019-03-23T08:51:49.571Z,72.50
2019-03-23T08:52:49.563Z,72.90
2019-03-23T08:53:49.556Z,72.80
2019-03-23T08:54:49.548Z,71.10
2019-03-23T08:55:49.545Z,76.00
2019-03-23T08:56:49.543Z,73.30
2019-03-23T08:57:49.537Z,76.40
2019-03-23T08:58:49.526Z,72.60
2019-03-23T08:59:49.519Z,71.10
2019-03-23T09:00:49.524Z,74.10
2019-03-23T09:01:49.515Z,80.60
2019-03-23T09:02:49.513Z,74.60
2019-03-23T09:03:52.754Z,75.40
2019-03-23T09:04:49.496Z,70.10
2019-03-23T09:05:49.491Z,73.70
2019-03-23T09:06:49.485Z,70.40
2019-03-23T09:07:49.481Z,75.30
2019-03-23T09:08:49.480Z,70.40
2019-03-23T09:09:58.856Z,73.10
2019-03-23T09:10:49.468Z,75.60
2019-03-23T09:11:49.459Z,76.80
2019-03-23T09:12:49.450Z,73.10
2019-03-23T09:13:49.443Z,70.80
2019-03-23T09:14:49.443Z,76.30
2019-03-23T09:15:49.438Z,71.50
2019-03-23T09:16:49.427Z,67.90
2019-03-23T09:17:49.423Z,80.70
2019-03-23T09:18:49.467Z,74.90
2019-03-23T09:19:49.414Z,73.90
2019-03-23T09:20:49.413Z,72.30
2019-03-23T09:21:49.408Z,82.50
2019-03-23T09:22:49.415Z,69.70
2019-03-23T09:23:49.397Z,71.70
2019-03-23T09:24:49.390Z,70.60
2019-03-23T09:25:49.383Z,71.90
2019-03-23T09:26:49.375Z,74.00
2019-03-23T09:27:49.368Z,72.90
2019-03-23T09:28:49.369Z,71.60
2019-03-23T09:29:49.364Z,72.40
2019-03-23T09:30:49.354Z,70.70
2019-03-23T09:31:49.348Z,69.20
2019-03-23T09:32:49.351Z,67.30
2019-03-23T09:33:49.345Z,65.70
2019-03-23T09:34:49.340Z,69.50
2019-03-23T09:35:49.334Z,71.40
2019-03-23T09:36:49.324Z,69.10
2019-03-23T09:37:49.321Z,72.70
2019-03-23T09:38:49.314Z,67.50
2019-03-23T09:39:49.308Z,70.50
2019-03-23T09:40:49.307Z,72.80
2019-03-23T09:41:49.314Z,62.60
2019-03-23T09:42:49.295Z,66.00
2019-03-23T09:43:49.289Z,66.50
2019-03-23T09:44:49.278Z,68.10
2019-03-23T09:45:49.275Z,61.20
2019-03-23T09:46:49.275Z,68.40
2019-03-23T09:47:49.268Z,68.10
2019-03-23T09:48:49.260Z,64.90
2019-03-23T09:49:49.252Z,66.70
2019-03-23T09:50:49.253Z,65.90
2019-03-23T09:51:49.248Z,64.80
2019-03-23T09:52:49.244Z,66.30
2019-03-23T09:53:49.240Z,64.50
2019-03-23T09:54:49.234Z,64.20
2019-03-23T09:55:49.228Z,65.60
2019-03-23T09:56:49.217Z,65.30
2019-03-23T09:57:49.217Z,64.60
2019-03-23T09:58:49.211Z,68.30
2019-03-23T09:59:49.207Z,65.60
2019-03-23T10:00:49.205Z,69.10
2019-03-23T10:01:49.202Z,68.30
2019-03-23T10:02:49.196Z,67.60
2019-03-23T10:03:49.186Z,69.10
2019-03-23T10:04:49.184Z,66.60
2019-03-23T10:05:49.186Z,68.90
2019-03-23T10:06:49.173Z,66.20
2019-03-23T10:07:49.175Z,68.20
2019-03-23T10:08:49.163Z,64.60
2019-03-23T10:09:49.159Z,65.30
2019-03-23T10:10:49.149Z,69.00
2019-03-23T10:11:49.145Z,65.90
2019-03-23T10:12:49.146Z,65.50
2019-03-23T10:13:49.138Z,62.30
2019-03-23T10:14:49.134Z,61.50
2019-03-23T10:15:49.130Z,60.10
2019-03-23T10:16:49.121Z,59.70
2019-03-23T10:17:49.117Z,62.20
2019-03-23T10:18:49.118Z,62.40
2019-03-23T10:19:49.113Z,63.80
2019-03-23T10:20:49.103Z,69.00
2019-03-23T10:21:49.100Z,57.80
2019-03-23T10:22:49.093Z,62.20
2019-03-23T10:23:49.089Z,59.20
2019-03-23T10:24:49.090Z,65.80
2019-03-23T10:25:49.093Z,66.00
2019-03-23T10:26:49.081Z,67.50
2019-03-23T10:27:49.075Z,60.50
2019-03-23T10:28:49.068Z,64.50
2019-03-23T10:29:49.063Z,61.00
2019-03-23T10:30:49.062Z,61.00
2019-03-23T10:31:49.062Z,58.60
2019-03-23T10:32:49.059Z,62.60
2019-03-23T10:33:49.058Z,58.40
2019-03-23T10:34:49.049Z,58.60
2019-03-23T10:35:49.043Z,54.40
2019-03-23T10:36:49.046Z,57.00
2019-03-23T10:37:49.042Z,63.00
2019-03-23T10:38:49.039Z,55.90
2019-03-23T10:39:49.032Z,58.50
2019-03-23T10:40:49.023Z,60.90
2019-03-23T10:41:49.021Z,59.70
2019-03-23T10:42:49.019Z,56.10
2019-03-23T10:43:49.017Z,55.20
2019-03-23T10:44:49.014Z,56.00
2019-03-23T10:45:49.016Z,63.40
2019-03-23T10:46:49.011Z,61.60
2019-03-23T10:47:49.142Z,59.10
2019-03-23T10:48:48.999Z,54.60
2019-03-23T10:49:48.993Z,54.10
2019-03-23T10:50:48.995Z,60.30
2019-03-23T10:51:48.995Z,58.90
2019-03-23T10:52:48.984Z,56.10
2019-03-23T10:53:48.986Z,58.50
2019-03-23T10:54:48.982Z,57.40
2019-03-23T10:55:48.971Z,52.80
2019-03-23T10:56:48.969Z,57.20
2019-03-23T10:57:48.964Z,56.10
2019-03-23T10:58:48.963Z,57.40
2019-03-23T10:59:48.960Z,53.60
2019-03-23T11:00:48.953Z,54.90
2019-03-23T11:01:48.949Z,55.00
2019-03-23T11:02:48.949Z,58.30
2019-03-23T11:03:48.952Z,56.20
2019-03-23T11:04:48.940Z,55.80
2019-03-23T11:05:48.939Z,53.10
2019-03-23T11:06:48.929Z,58.80
2019-03-23T11:07:48.925Z,55.00
2019-03-23T11:08:48.937Z,59.10
2019-03-23T11:09:48.929Z,58.30
2019-03-23T11:10:48.927Z,57.40
2019-03-23T11:11:48.923Z,56.90
2019-03-23T11:12:48.919Z,54.30
2019-03-23T11:13:48.917Z,53.10
2019-03-23T11:14:48.917Z,54.20
2019-03-23T11:15:48.916Z,52.20
2019-03-23T11:16:48.915Z,55.40
2019-03-23T11:17:48.919Z,58.20
2019-03-23T11:18:48.910Z,53.20
2019-03-23T11:19:48.911Z,50.40
2019-03-23T11:20:48.905Z,59.00
2019-03-23T11:21:48.912Z,54.90
2019-03-23T11:22:48.910Z,49.00
2019-03-23T11:23:48.904Z,58.50
2019-03-23T11:24:48.902Z,50.20
2019-03-23T11:25:48.900Z,52.50
2019-03-23T11:26:48.906Z,58.70
2019-03-23T11:27:48.902Z,55.30
2019-03-23T11:28:48.904Z,50.60
2019-03-23T11:29:48.910Z,55.50
2019-03-23T11:30:48.904Z,57.30
2019-03-23T11:31:48.905Z,55.10
2019-03-23T11:32:48.908Z,49.80
2019-03-23T11:33:48.899Z,55.70
2019-03-23T11:34:48.895Z,51.50
2019-03-23T11:35:57.467Z,53.50
2019-03-23T11:36:48.900Z,46.30
2019-03-23T11:37:49.176Z,51.90
2019-03-23T11:38:48.896Z,54.70
2019-03-23T11:39:48.898Z,56.20
2019-03-23T11:40:54.940Z,53.50
2019-03-23T11:41:48.899Z,56.00
2019-03-23T11:42:50.367Z,50.60
2019-03-23T11:43:48.903Z,52.90
2019-03-23T11:44:48.949Z,52.20
2019-03-23T11:45:48.897Z,56.80
2019-03-23T11:46:48.896Z,54.50
2019-03-23T11:47:48.896Z,53.10
2019-03-23T11:48:48.900Z,52.20
2019-03-23T11:49:48.901Z,54.60
2019-03-23T11:50:48.901Z,52.70
2019-03-23T11:51:48.896Z,53.70
2019-03-23T11:52:48.893Z,45.70
2019-03-23T11:53:48.891Z,47.40
2019-03-23T11:54:48.899Z,40.60
2019-03-23T11:55:48.897Z,49.20
2019-03-23T11:56:48.891Z,57.70
2019-03-23T11:57:48.892Z,47.00
2019-03-23T11:58:48.898Z,55.30
2019-03-23T11:59:48.896Z,55.80
2019-03-23T12:00:48.928Z,58.40
2019-03-23T12:01:51.973Z,50.00
2019-03-23T12:02:48.903Z,54.50
2019-03-23T12:03:48.902Z,52.80
2019-03-23T12:04:48.896Z,55.00
2019-03-23T12:05:48.900Z,53.10
2019-03-23T12:06:48.898Z,48.40
2019-03-23T12:07:48.896Z,54.90
2019-03-23T12:08:48.898Z,47.40
2019-03-23T12:09:48.900Z,54.50
2019-03-23T12:10:48.896Z,53.30
2019-03-23T12:11:48.894Z,53.20
2019-03-23T12:12:48.899Z,51.30
2019-03-23T12:13:48.899Z,55.10
2019-03-23T12:14:48.903Z,54.30
2019-03-23T12:15:48.901Z,50.90
2019-03-23T12:16:48.901Z,51.60
2019-03-23T12:17:48.903Z,49.80
2019-03-23T12:18:48.899Z,57.30
2019-03-23T12:19:48.897Z,46.30
2019-03-23T12:20:48.941Z,45.30
2019-03-23T12:21:50.806Z,57.10
2019-03-23T12:22:48.901Z,47.90
2019-03-23T12:23:48.903Z,53.10
2019-03-23T12:24:48.897Z,48.00
2019-03-23T12:25:48.899Z,50.60
2019-03-23T12:26:48.904Z,53.60
2019-03-23T12:27:48.901Z,49.20
2019-03-23T12:28:48.896Z,49.40
2019-03-23T12:29:48.896Z,48.00
2019-03-23T12:30:48.900Z,51.80
2019-03-23T12:31:48.902Z,52.40
2019-03-23T12:32:48.902Z,52.60
2019-03-23T12:33:48.903Z,52.20
2019-03-23T12:34:48.902Z,55.20
2019-03-23T12:35:48.900Z,48.00
2019-03-23T12:36:48.899Z,49.80
2019-03-23T12:37:48.899Z,48.80
2019-03-23T12:38:48.895Z,48.40
2019-03-23T12:39:48.894Z,47.60
2019-03-23T12:40:48.896Z,54.70
2019-03-23T12:41:48.896Z,48.60
2019-03-23T12:42:48.892Z,46.50
2019-03-23T12:43:48.890Z,50.80
2019-03-23T12:44:48.896Z,55.40
2019-03-23T12:45:48.892Z,55.60